Main page
METAR-TAF:

METAR-TAF

Airports :

Chambéry Airport

Chambery / Aix-Les-Bains, France

latitude: 45-39N, longitude: 005-53E, elevation: 235 m

Current weather observation

The report was made 29 minutes ago, at 13:30 UTC
Wind 6 kt from the North/Northwest, varying between Northwest and North/Northeast
Temperature 18°C
Humidity 37%
Pressure 1019 hPa
Visibility 10 km or more
no clouds below 1500 m and no cumulonimbus

METAR: LFLB 041330Z AUTO 34006KT 310V020 CAVOK 18/03 Q1019 NOSIG

Time: 15:59 (13:59 UTC)

Forecast

The report was made 2 hours and 59 minutes ago, at 11:00 UTC
Forecast valid from 04 at 12 UTC to 05 at 12 UTC
Wind 8 kt from the North
Visibility 10 km or more
no clouds below 1500 m and no cumulonimbus
Becoming
from 04 at 18 UTC to 04 at 20 UTC
Wind 4 kt from the South
Becoming
from 05 at 08 UTC to 05 at 10 UTC
Wind 6 kt from the North

TAF: LFLB 041100Z 0412/0512 36008KT CAVOK BECMG 0418/0420 18004KT BECMG 0508/0510 36006KT

Weather observations and forecasts of more than 4000 airports (METAR and TAF reports).

The available stations are represented by yellow and red dots on the map.

Hover mouse over dot to see the name of the station.

Then click to see weather observations and forecasts.

To change the map : click on the green buttons with a black cross to zoom in, on the green button with a dash to zoom out, or on the green arrows for adjacent maps.


METAR-TAF: